^^
Grace C. Lehan Memorial Weather Station Historical Data
Daily Summary for August 26, 2021 Units:  English    Metric   Both
Daily Weekly Monthly Yearly
  High: Low: Average:
Temperature: 60 °F 49.6 °F 53.8 °F
Dew Point: 59.2 °F 48.6 °F 52.9 °F
Humidity: 99.5% 96% 97%
Wind Speed: 3.5mph 0mph 0.8mph
Wind Gust: 16mph - -
Wind- - SE
Pressure: 29.82 in 29.40 in -
Precipitation: 2.02 in    
 
 
Tabular Data for August 26, 2021
Time Temperature Dew Point Pressure Wind Wind Speed Wind Gust Humidity Rainfall Rate (Hourly) solar
00:00 50.4 °F 49.3 °F 29.82 in NW 3 mph 10 mph 96% 0.02 in 0 W/m2
00:09 50.3 °F 49.2 °F 29.82 in North 0.8 mph 3 mph 96% 0.02 in 0 W/m2
00:14 50.3 °F 49.2 °F 29.82 in North 0.6 mph 5 mph 96% 0.02 in 0 W/m2
00:19 50.2 °F 49.1 °F 29.82 in North 0.4 mph 6 mph 96% 0.02 in 0 W/m2
00:24 50.1 °F 49 °F 29.82 in NW 0.1 mph 6 mph 96% 0.02 in 0 W/m2
00:29 50.1 °F 49 °F 29.82 in North 0.6 mph 9 mph 96% 0.02 in 0 W/m2
00:34 50.1 °F 49 °F 29.82 in Calm   9 mph 96% 0.02 in 0 W/m2
00:39 50.1 °F 49 °F 29.82 in SSE 0.1 mph 2 mph 96% 0.02 in 0 W/m2
00:44 50 °F 48.9 °F 29.82 in NE 0.3 mph 2 mph 96% 0.03 in 0 W/m2
00:49 50 °F 48.9 °F 29.81 in East 1 mph 5 mph 96% 0.03 in 0 W/m2
00:54 50 °F 48.9 °F 29.80 in NE 1.3 mph 10 mph 96% 0.03 in 0 W/m2
00:59 50 °F 48.9 °F 29.81 in NE 0.5 mph 10 mph 96% 0.03 in 0 W/m2
01:04 49.9 °F 48.9 °F 29.81 in NE 0.2 mph 10 mph 96% 0.03 in 0 W/m2
01:09 50 °F 48.9 °F 29.81 in NW 0.3 mph 3 mph 96% 0.03 in 0 W/m2
01:14 50.1 °F 49 °F 29.81 in North 0.5 mph 6 mph 96% 0.03 in 0 W/m2
01:19 50.1 °F 49 °F 29.80 in North 0.1 mph 6 mph 96% 0.03 in 0 W/m2
01:24 50.1 °F 49 °F 29.79 in Calm   6 mph 96% 0.04 in 0 W/m2
01:29 50.1 °F 49 °F 29.79 in NNE 0.1 mph 6 mph 96% 0.05 in 0 W/m2
01:34 50 °F 48.9 °F 29.78 in NNE 0.2 mph 6 mph 96% 0.06 in 0 W/m2
01:39 50 °F 48.9 °F 29.78 in NNW 0.2 mph 5 mph 96% 0.06 in 0 W/m2
01:44 50 °F 48.9 °F 29.77 in NW 0.3 mph 5 mph 96% 0.07 in 0 W/m2
01:49 49.9 °F 48.8 °F 29.77 in NE 0.5 mph 5 mph 96% 0.07 in 0 W/m2
01:54 49.9 °F 48.8 °F 29.77 in NNE 0.3 mph 5 mph 96% 0.10 in 0 W/m2
01:59 49.9 °F 48.8 °F 29.76 in East 0.1 mph 5 mph 96% 0.12 in 0 W/m2
02:04 49.8 °F 48.7 °F 29.75 in NE 0.3 mph 5 mph 96% 0.12 in 0 W/m2
02:09 49.8 °F 48.7 °F 29.75 in NNW 0.3 mph 6 mph 96% 0.13 in 0 W/m2
02:14 49.8 °F 48.7 °F 29.75 in ENE 0.2 mph 6 mph 96% 0.14 in 0 W/m2
02:19 49.8 °F 48.7 °F 29.75 in North 0.7 mph 6 mph 96% 0.14 in 0 W/m2
02:24 49.8 °F 48.7 °F 29.75 in North 0.6 mph 13 mph 96% 0.15 in 0 W/m2
02:29 49.8 °F 48.7 °F 29.75 in NNW 0.4 mph 13 mph 96% 0.15 in 0 W/m2
02:34 49.8 °F 48.7 °F 29.74 in NW 0.7 mph 13 mph 96% 0.15 in 0 W/m2
02:39 49.8 °F 48.7 °F 29.73 in NNW 0.9 mph 7 mph 96% 0.14 in 0 W/m2
02:44 49.8 °F 48.7 °F 29.73 in North 0.9 mph 11 mph 96% 0.15 in 0 W/m2
02:49 49.8 °F 48.7 °F 29.72 in NNW 2 mph 12 mph 96% 0.17 in 0 W/m2
02:54 49.7 °F 48.6 °F 29.72 in NE 1.3 mph 12 mph 96% 0.18 in 0 W/m2
02:59 49.7 °F 48.6 °F 29.72 in ENE 0.3 mph 12 mph 96% 0.20 in 0 W/m2
03:04 49.6 °F 48.6 °F 29.72 in NNW 0.5 mph 12 mph 96% 0.20 in 0 W/m2
03:09 49.7 °F 48.6 °F 29.71 in NNW 0.5 mph 4 mph 96% 0.19 in 0 W/m2
03:14 49.7 °F 48.6 °F 29.71 in North 0.7 mph 7 mph 96% 0.22 in 0 W/m2
03:19 49.7 °F 48.6 °F 29.71 in ENE 0.5 mph 7 mph 96% 0.27 in 0 W/m2
03:24 49.7 °F 48.6 °F 29.70 in ENE 0.5 mph 7 mph 96% 0.31 in 0 W/m2
03:29 49.7 °F 48.6 °F 29.70 in NE 0.2 mph 7 mph 96% 0.35 in 0 W/m2
03:34 49.8 °F 48.7 °F 29.69 in North 0.6 mph 9 mph 96% 0.35 in 0 W/m2
03:39 49.8 °F 48.7 °F 29.69 in North 0.1 mph 5 mph 96% 0.35 in 0 W/m2
03:44 49.9 °F 48.8 °F 29.69 in North 0.6 mph 6 mph 96% 0.35 in 0 W/m2
03:49 49.9 °F 48.8 °F 29.69 in North 0.6 mph 6 mph 96% 0.40 in 0 W/m2
03:54 49.9 °F 48.8 °F 29.69 in North 0.1 mph 6 mph 96% 0.40 in 0 W/m2
03:59 49.9 °F 48.8 °F 29.68 in NNW 0.1 mph 6 mph 96% 0.41 in 0 W/m2
04:00 49.9 °F 48.8 °F 29.67 in Calm   6 mph 96% 0.41 in 0 W/m2
04:09 49.9 °F 48.8 °F 29.68 in NE 0.3 mph 5 mph 96% 0.35 in 0 W/m2
04:14 49.9 °F 48.8 °F 29.67 in ENE 1.1 mph 11 mph 96% 0.42 in 0 W/m2
04:19 49.9 °F 48.8 °F 29.67 in East 0.5 mph 11 mph 96% 0.43 in 0 W/m2
04:24 49.9 °F 48.8 °F 29.67 in ENE 0.3 mph 11 mph 96% 0.43 in 0 W/m2
04:29 49.9 °F 48.8 °F 29.67 in NW 0.2 mph 11 mph 96% 0.44 in 0 W/m2
04:34 49.9 °F 48.8 °F 29.67 in North 0.2 mph 11 mph 96% 0.44 in 0 W/m2
04:39 50 °F 48.9 °F 29.67 in NE 0.1 mph 2 mph 96% 0.22 in 0 W/m2
04:44 50 °F 49.9 °F 29.67 in NNE 0.1 mph 2 mph 99.5% 0.22 in 0 W/m2
04:49 50 °F 49.3 °F 29.67 in NNE 0.6 mph 6 mph 97.5% 0.22 in 0 W/m2
04:54 50 °F 49.6 °F 29.66 in WNW 0.4 mph 6 mph 98.4% 0.22 in 0 W/m2
04:59 50 °F 49.5 °F 29.66 in North 0.7 mph 11 mph 98.2% 0.22 in 0 W/m2
05:04 50 °F 48.9 °F 29.66 in North 0.5 mph 11 mph 96% 0.22 in 0 W/m2
05:09 49.9 °F 48.8 °F 29.65 in NNW 1.2 mph 10 mph 96% 0.12 in 0 W/m2
05:14 49.9 °F 48.8 °F 29.65 in North 0.6 mph 10 mph 96% 0.12 in 0 W/m2
05:19 49.9 °F 48.8 °F 29.65 in North 0.4 mph 10 mph 96% 0.12 in 0 W/m2
05:24 49.9 °F 48.8 °F 29.64 in NNE 0.5 mph 10 mph 96% 0.12 in 0 W/m2
05:29 49.9 °F 48.8 °F 29.64 in North 0.5 mph 11 mph 96% 0.13 in 0 W/m2
05:34 49.9 °F 48.8 °F 29.64 in North 0.3 mph 11 mph 96% 0.13 in 0 W/m2
05:39 49.9 °F 48.8 °F 29.63 in NNE 0.3 mph 6 mph 96% 0.01 in 0 W/m2
05:44 49.9 °F 48.9 °F 29.62 in NNW 0.5 mph 9 mph 96.1% 0.02 in 0 W/m2
05:49 50 °F 49.1 °F 29.63 in NNE 0.7 mph 9 mph 96.7% 0.02 in 0 W/m2
05:54 50 °F 49.7 °F 29.62 in NNW 0.3 mph 9 mph 99% 0.02 in 0 W/m2
05:59 50.1 °F 49.3 °F 29.62 in NW 0.3 mph 9 mph 97% 0.02 in 0 W/m2
06:04 50.2 °F 49.3 °F 29.61 in NNW 1.1 mph 14 mph 97% 0.02 in 0 W/m2
06:09 50.3 °F 49.4 °F 29.61 in NW 0.8 mph 14 mph 97% 0.02 in 0 W/m2
06:14 50.3 °F 49.5 °F 29.61 in NW 0.3 mph 14 mph 97% 0.02 in 0 W/m2
06:19 50.4 °F 49.6 °F 29.61 in NNE 0.2 mph 14 mph 97% 0.03 in 0 W/m2
06:24 50.4 °F 49.6 °F 29.60 in North 0.7 mph 14 mph 97% 0.04 in 0 W/m2
06:29 50.5 °F 49.7 °F 29.60 in NNW 0.8 mph 14 mph 97% 0.04 in 0 W/m2
06:34 50.5 °F 49.7 °F 29.60 in NNW 0.6 mph 14 mph 97% 0.04 in 0 W/m2
06:39 50.6 °F 49.8 °F 29.60 in NNW 1 mph 9 mph 97% 0.05 in 0 W/m2
06:44 50.7 °F 49.8 °F 29.60 in NNW 0.2 mph 9 mph 97% 0.05 in 0 W/m2
06:49 50.7 °F 49.9 °F 29.60 in NNW 1.5 mph 9 mph 97% 0.05 in 0 W/m2
06:54 50.8 °F 50 °F 29.60 in NNW 1 mph 9 mph 97% 0.07 in 0 W/m2
06:59 50.8 °F 50 °F 29.60 in NNE 0.5 mph 9 mph 97% 0.07 in 0 W/m2
07:04 50.9 °F 50.1 °F 29.60 in NNW 0.8 mph 12 mph 97% 0.07 in 0 W/m2
07:09 51 °F 50.1 °F 29.60 in NW 0.7 mph 12 mph 97% 0.06 in 0 W/m2
07:14 51 °F 50.2 °F 29.59 in NNW 0.5 mph 12 mph 97% 0.06 in 0 W/m2
07:19 51.1 °F 50.3 °F 29.59 in NNW 0.8 mph 12 mph 97% 0.06 in 0 W/m2
07:24 51.2 °F 50.3 °F 29.59 in NW 0.4 mph 12 mph 97% 0.07 in 0 W/m2
07:29 51.2 °F 50.4 °F 29.58 in NNW 0.5 mph 12 mph 97% 0.08 in 0 W/m2
07:34 51.2 °F 50.4 °F 29.58 in North 0.6 mph 12 mph 97% 0.08 in 0 W/m2
07:39 51.3 °F 50.5 °F 29.58 in NW 0.5 mph 6 mph 97% 0.07 in 0 W/m2
07:44 51.4 °F 50.6 °F 29.58 in North 0.2 mph 6 mph 97% 0.08 in 0 W/m2
07:49 51.4 °F 50.6 °F 29.58 in Calm   6 mph 97% 0.09 in 0 W/m2
07:54 51.5 °F 50.7 °F 29.58 in NNE 0.8 mph 6 mph 97% 0.10 in 5 W/m2
07:59 51.6 °F 50.8 °F 29.58 in North 0.9 mph 9 mph 97% 0.10 in 5 W/m2
08:00 51.7 °F 50.9 °F 29.57 in Calm   9 mph 97% 0.10 in 0 W/m2
08:09 51.8 °F 51 °F 29.58 in NE 0.5 mph 5 mph 97% 0.14 in 11 W/m2
08:14 51.9 °F 51.1 °F 29.57 in NNW 0.5 mph 6 mph 97% 0.14 in 9 W/m2
08:19 52 °F 51.2 °F 29.57 in NNE 0.4 mph 6 mph 97% 0.14 in 5 W/m2
08:24 52.1 °F 51.3 °F 29.57 in NE 0.5 mph 6 mph 97% 0.14 in 7 W/m2
08:29 52.2 °F 51.4 °F 29.57 in East 0.1 mph 6 mph 97% 0.15 in 9 W/m2
08:34 52.2 °F 51.4 °F 29.57 in ENE 1.4 mph 6 mph 97% 0.15 in 9 W/m2
08:39 52.3 °F 51.5 °F 29.57 in NE 0.8 mph 6 mph 97% 0.09 in 11 W/m2
08:44 52.3 °F 51.5 °F 29.56 in ENE 1.1 mph 6 mph 97% 0.10 in 11 W/m2
08:49 52.4 °F 51.6 °F 29.56 in ENE 2 mph 12 mph 97% 0.10 in 12 W/m2
08:54 52.5 °F 51.7 °F 29.56 in ENE 1.6 mph 12 mph 97% 0.10 in 21 W/m2
08:59 52.6 °F 51.7 °F 29.56 in NE 0.7 mph 12 mph 97% 0.10 in 26 W/m2
09:04 52.7 °F 51.9 °F 29.55 in ENE 0.9 mph 12 mph 97% 0.10 in 18 W/m2
09:09 52.7 °F 51.9 °F 29.55 in NE 0.5 mph 6 mph 97% 0.01 in 16 W/m2
09:14 52.8 °F 52 °F 29.55 in North 1.8 mph 13 mph 97% 0.01 in 12 W/m2
09:19 52.9 °F 52.1 °F 29.55 in ENE 1 mph 13 mph 97% 0.01 in 12 W/m2
09:24 52.9 °F 52.1 °F 29.54 in ENE 0.9 mph 13 mph 97% 0.02 in 12 W/m2
09:29 52.9 °F 52.1 °F 29.54 in NNE 0.6 mph 13 mph 97% 0.02 in 18 W/m2
09:34 52.9 °F 52.1 °F 29.53 in ENE 0.2 mph 13 mph 97% 0.02 in 19 W/m2
09:39 52.9 °F 52.1 °F 29.53 in NNE 0.7 mph 9 mph 97% 0.03 in 21 W/m2
09:44 52.9 °F 52.1 °F 29.53 in NE 0.4 mph 9 mph 97% 0.04 in 25 W/m2
09:49 53 °F 52.2 °F 29.52 in NE 0.1 mph 9 mph 97% 0.04 in 25 W/m2
09:54 53 °F 52.2 °F 29.52 in NNE 0.5 mph 9 mph 97% 0.05 in 46 W/m2
09:59 53.1 °F 52.2 °F 29.51 in ENE 0.4 mph 9 mph 97% 0.05 in 35 W/m2
10:04 53.1 °F 52.3 °F 29.51 in NE 0.7 mph 9 mph 97% 0.05 in 23 W/m2
10:09 53.2 °F 52.4 °F 29.50 in ENE 0.3 mph 5 mph 97% 0.05 in 40 W/m2
10:14 53.3 °F 52.5 °F 29.50 in North 0.9 mph 6 mph 97% 0.05 in 47 W/m2
10:19 53.4 °F 52.6 °F 29.50 in North 0.7 mph 6 mph 97% 0.05 in 44 W/m2
10:24 53.5 °F 52.7 °F 29.49 in ENE 1.3 mph 11 mph 97% 0.05 in 60 W/m2
10:29 53.5 °F 52.7 °F 29.49 in NE 1 mph 11 mph 97% 0.05 in 40 W/m2
10:34 53.5 °F 52.7 °F 29.49 in NE 1.6 mph 14 mph 97% 0.05 in 47 W/m2
10:39 53.6 °F 52.8 °F 29.49 in ENE 2.4 mph 14 mph 97% 0.04 in 39 W/m2
10:44 53.7 °F 52.9 °F 29.48 in ENE 0.9 mph 14 mph 97% 0.04 in 32 W/m2
10:49 53.7 °F 52.9 °F 29.48 in NE 1.3 mph 14 mph 97% 0.05 in 35 W/m2
10:54 53.8 °F 52.9 °F 29.48 in ENE 2.4 mph 14 mph 97% 0.05 in 44 W/m2
10:59 53.9 °F 53 °F 29.48 in NE 0.4 mph 14 mph 97% 0.05 in 39 W/m2
11:04 53.9 °F 53.1 °F 29.48 in NE 0.5 mph 14 mph 97% 0.05 in 37 W/m2
11:09 54 °F 53.2 °F 29.48 in ENE 0.5 mph 5 mph 97% 0.04 in 23 W/m2
11:14 54 °F 53.2 °F 29.48 in ENE 1.1 mph 6 mph 97% 0.06 in 33 W/m2
11:19 54 °F 53.2 °F 29.48 in ENE 0.8 mph 6 mph 97% 0.09 in 37 W/m2
11:24 54 °F 53.2 °F 29.48 in ENE 0.8 mph 6 mph 97% 0.12 in 35 W/m2
11:29 54.1 °F 53.2 °F 29.48 in NE 0.5 mph 6 mph 97% 0.15 in 65 W/m2
11:34 54.1 °F 53.3 °F 29.46 in ENE 0.9 mph 7 mph 97% 0.15 in 65 W/m2
11:39 54.1 °F 53.3 °F 29.46 in NE 1.6 mph 9 mph 97% 0.16 in 46 W/m2
11:44 54.2 °F 53.4 °F 29.46 in NE 1.4 mph 9 mph 97% 0.18 in 46 W/m2
11:49 54.3 °F 53.4 °F 29.46 in ENE 1.7 mph 10 mph 97% 0.21 in 39 W/m2
11:54 54.4 °F 53.6 °F 29.46 in ENE 2.6 mph 11 mph 97% 0.24 in 44 W/m2
11:59 54.6 °F 53.7 °F 29.46 in ENE 1.2 mph 11 mph 97% 0.28 in 42 W/m2
12:09 54.8 °F 53.9 °F 29.46 in ENE 0.6 mph 3 mph 97% 0.35 in 42 W/m2
12:14 54.8 °F 54 °F 29.45 in ENE 0.3 mph 3 mph 97% 0.38 in 47 W/m2
12:19 55 °F 54.1 °F 29.45 in ENE 0.2 mph 3 mph 97% 0.42 in 47 W/m2
12:24 55.1 °F 54.3 °F 29.45 in Calm   3 mph 97% 0.45 in 39 W/m2
12:29 55.1 °F 54.3 °F 29.45 in NE 0.3 mph 3 mph 97% 0.51 in 35 W/m2
12:34 55.2 °F 54.4 °F 29.44 in ENE 0.1 mph 3 mph 97% 0.51 in 42 W/m2
12:39 55.3 °F 54.5 °F 29.44 in NNE 0.7 mph 6 mph 97% 0.46 in 30 W/m2
12:44 55.3 °F 54.5 °F 29.44 in Calm   6 mph 97% 0.48 in 26 W/m2
12:49 55.4 °F 54.6 °F 29.44 in NE 0.1 mph 6 mph 97% 0.49 in 26 W/m2
12:54 55.4 °F 54.6 °F 29.43 in ENE 0.1 mph 6 mph 97% 0.51 in 42 W/m2
12:59 55.5 °F 54.7 °F 29.43 in ENE 0.1 mph 6 mph 97% 0.52 in 42 W/m2
13:04 55.6 °F 54.7 °F 29.43 in ENE 0.6 mph 6 mph 97% 0.52 in 47 W/m2
13:09 55.8 °F 54.9 °F 29.43 in ENE 0.7 mph 5 mph 97% 0.16 in 47 W/m2
13:14 55.9 °F 55.1 °F 29.43 in ENE 0.4 mph 5 mph 97% 0.16 in 37 W/m2
13:19 56.1 °F 55.3 °F 29.42 in ENE 0.1 mph 5 mph 97% 0.17 in 49 W/m2
13:24 56.4 °F 55.5 °F 29.42 in ENE 0.7 mph 6 mph 97% 0.18 in 46 W/m2
13:29 56.7 °F 55.8 °F 29.42 in ENE 0.6 mph 6 mph 97% 0.20 in 51 W/m2
13:34 57 °F 56.2 °F 29.41 in ENE 2.2 mph 9 mph 97% 0.21 in 67 W/m2
13:39 57.4 °F 56.5 °F 29.41 in NE 2.6 mph 13 mph 97% 0.23 in 83 W/m2
13:44 57.7 °F 56.9 °F 29.41 in ENE 1.2 mph 13 mph 97% 0.24 in 53 W/m2
13:49 58 °F 57.2 °F 29.41 in NE 1.2 mph 13 mph 97% 0.25 in 37 W/m2
13:54 58.2 °F 57.3 °F 29.41 in NE 0.1 mph 13 mph 97% 0.27 in 46 W/m2
13:59 58.2 °F 57.3 °F 29.41 in ENE 0.5 mph 13 mph 97% 0.30 in 56 W/m2
14:04 58.1 °F 57.3 °F 29.41 in ENE 0.1 mph 13 mph 97% 0.30 in 53 W/m2
14:09 58.2 °F 57.4 °F 29.41 in ENE 0.5 mph 4 mph 97% 0.19 in 67 W/m2
14:14 58.4 °F 57.6 °F 29.40 in ENE 1.5 mph 6 mph 97% 0.20 in 60 W/m2
14:19 58.7 °F 57.9 °F 29.40 in ENE 2 mph 11 mph 97% 0.21 in 67 W/m2
14:24 59 °F 58.2 °F 29.40 in ENE 1.4 mph 11 mph 97% 0.21 in 62 W/m2
14:29 59.3 °F 58.5 °F 29.40 in ENE 1.2 mph 11 mph 97% 0.22 in 42 W/m2
14:34 59.5 °F 58.7 °F 29.41 in ENE 3.5 mph 11 mph 97% 0.22 in 62 W/m2
14:39 59.8 °F 58.9 °F 29.41 in ENE 3.2 mph 11 mph 97% 0.19 in 70 W/m2
14:44 59.9 °F 59 °F 29.41 in East 1.2 mph 11 mph 97% 0.19 in 67 W/m2
14:49 59.9 °F 59.1 °F 29.41 in ENE 1.8 mph 11 mph 97% 0.20 in 72 W/m2
14:54 59.9 °F 59.1 °F 29.41 in East 2 mph 11 mph 97% 0.20 in 65 W/m2
14:59 59.9 °F 59.1 °F 29.41 in East 2.2 mph 11 mph 97% 0.20 in 62 W/m2
15:04 59.9 °F 59.1 °F 29.41 in ENE 0.8 mph 11 mph 97% 0.20 in 42 W/m2
15:09 59.9 °F 59 °F 29.41 in ENE 1.1 mph 6 mph 97% 0.11 in 30 W/m2
15:14 59.8 °F 59 °F 29.42 in ENE 0.9 mph 7 mph 97% 0.12 in 26 W/m2
15:19 59.8 °F 59 °F 29.42 in ENE 2.3 mph 11 mph 97% 0.13 in 30 W/m2
15:24 59.9 °F 59 °F 29.42 in ENE 3.1 mph 11 mph 97% 0.14 in 56 W/m2
15:29 59.9 °F 59.1 °F 29.42 in ENE 1.8 mph 11 mph 97% 0.14 in 51 W/m2
15:34 60 °F 59.2 °F 29.42 in ENE 0.9 mph 11 mph 97% 0.14 in 51 W/m2
15:39 60 °F 59.2 °F 29.42 in ENE 0.3 mph 6 mph 97% 0.09 in 51 W/m2
15:44 60 °F 59.2 °F 29.41 in NE 0.5 mph 6 mph 97% 0.09 in 28 W/m2
15:49 60 °F 59.2 °F 29.41 in ENE 0.5 mph 6 mph 97% 0.10 in 18 W/m2
15:54 60 °F 59.2 °F 29.41 in ENE 1.4 mph 6 mph 97% 0.10 in 23 W/m2
15:59 60 °F 59.2 °F 29.42 in ENE 2.4 mph 7 mph 97% 0.10 in 30 W/m2
16:00 60 °F 59.2 °F 29.42 in NE 3 mph 7 mph 97% 0.10 in 25 W/m2
16:09 60 °F 59.2 °F 29.42 in ENE 2.1 mph 10 mph 97% 0.11 in 40 W/m2
16:14 60 °F 59.2 °F 29.42 in ENE 1 mph 10 mph 97% 0.11 in 37 W/m2
16:19 60 °F 59.2 °F 29.42 in ENE 0.2 mph 10 mph 97% 0.11 in 23 W/m2
16:24 60 °F 59.2 °F 29.42 in ENE 1.1 mph 10 mph 97% 0.11 in 19 W/m2
16:29 60 °F 59.2 °F 29.42 in East 0.5 mph 10 mph 97% 0.11 in 18 W/m2
16:34 60 °F 59.1 °F 29.42 in ENE 0.7 mph 10 mph 97% 0.11 in 12 W/m2
16:39 59.9 °F 59.1 °F 29.42 in ENE 0.9 mph 4 mph 97% 0.04 in 12 W/m2
16:44 59.9 °F 59.1 °F 29.42 in NNW 0.2 mph 5 mph 97% 0.04 in 9 W/m2
16:49 59.8 °F 59 °F 29.42 in NE 0.3 mph 5 mph 97% 0.04 in 7 W/m2
16:54 59.6 °F 58.8 °F 29.42 in ENE 0.6 mph 6 mph 97% 0.04 in 5 W/m2
16:59 59.4 °F 58.5 °F 29.42 in ENE 0.4 mph 6 mph 97% 0.04 in 5 W/m2
17:04 59.2 °F 58.4 °F 29.42 in Calm     97% 0.01 in 7 W/m2
17:09 59.1 °F 58.3 °F 29.42 in North 0.2 mph 4 mph 97% 0.02 in 7 W/m2
17:14 59.1 °F 58.2 °F 29.42 in Calm   4 mph 97% 0.02 in 9 W/m2
17:19 59 °F 58.1 °F 29.43 in NNE 0.1 mph 4 mph 97% 0.03 in 9 W/m2
17:24 58.9 °F 58.1 °F 29.43 in Calm   4 mph 97% 0.04 in 5 W/m2
17:29 58.8 °F 58 °F 29.43 in NE 0.1 mph 4 mph 97% 0.04 in 0 W/m2
17:34 58.7 °F 57.9 °F 29.43 in North 1.2 mph 7 mph 97% 0.05 in 0 W/m2
17:39 58.6 °F 57.8 °F 29.43 in NNW 0.3 mph 7 mph 97% 0.06 in 0 W/m2
17:44 58.5 °F 57.6 °F 29.43 in NNE 0.1 mph 7 mph 97% 0.06 in 0 W/m2
17:49 58.2 °F 57.4 °F 29.43 in NE 0.4 mph 7 mph 97% 0.06 in 0 W/m2
17:54 57.9 °F 57.1 °F 29.44 in East 0.4 mph 7 mph 97% 0.06 in 0 W/m2
17:59 57.7 °F 56.8 °F 29.44 in North 0.6 mph 9 mph 97% 0.07 in 0 W/m2
18:04 57.4 °F 56.6 °F 29.44 in North 0.8 mph 9 mph 97% 0.07 in 0 W/m2
18:09 57.2 °F 56.3 °F 29.44 in North 1.9 mph 10 mph 97% 0.07 in 0 W/m2
18:14 56.8 °F 56 °F 29.44 in NNW 1.5 mph 13 mph 97% 0.07 in 0 W/m2
18:19 56.6 °F 55.8 °F 29.44 in NNW 1.1 mph 13 mph 97% 0.07 in 0 W/m2
18:24 56.4 °F 55.6 °F 29.44 in North 0.5 mph 13 mph 97% 0.07 in 0 W/m2
18:29 56.2 °F 55.4 °F 29.44 in NNW 0.6 mph 13 mph 97% 0.07 in 0 W/m2
18:34 56.1 °F 55.3 °F 29.45 in NNW 1.6 mph 13 mph 97% 0.07 in 0 W/m2
18:39 56 °F 55.2 °F 29.45 in NE 0.3 mph 12 mph 97% 0.04 in 0 W/m2
18:44 55.9 °F 55 °F 29.45 in NNW 0.9 mph 12 mph 97% 0.04 in 0 W/m2
18:49 55.8 °F 55 °F 29.45 in NNW 0.7 mph 12 mph 97% 0.05 in 0 W/m2
18:54 55.7 °F 54.9 °F 29.45 in North 1 mph 12 mph 97% 0.05 in 0 W/m2
18:59 55.7 °F 54.9 °F 29.45 in West 0.3 mph 12 mph 97% 0.05 in 0 W/m2
19:04 55.7 °F 54.8 °F 29.45 in NNE 1.2 mph 12 mph 97% 0.05 in 0 W/m2
19:09 55.6 °F 54.8 °F 29.45 in ENE 0.5 mph 12 mph 97% 0.02 in 0 W/m2
19:14 55.6 °F 54.7 °F 29.45 in SW 0.4 mph 12 mph 97% 0.02 in 0 W/m2
19:19 55.6 °F 54.7 °F 29.45 in NE 0.8 mph 12 mph 97% 0.02 in 0 W/m2
19:24 55.5 °F 54.7 °F 29.45 in NE 0.6 mph 12 mph 97% 0.02 in 0 W/m2
19:29 55.4 °F 54.6 °F 29.46 in NNW 0.7 mph 12 mph 97% 0.02 in 0 W/m2
19:34 55.3 °F 54.5 °F 29.46 in NW 0.3 mph 12 mph 97% 0.02 in 0 W/m2
19:39 55.3 °F 54.4 °F 29.46 in ENE 0.5 mph 7 mph 97% 0.02 in 0 W/m2
19:44 55.1 °F 54.3 °F 29.46 in NNE 0.9 mph 12 mph 97% 0.02 in 0 W/m2
19:49 55.1 °F 54.2 °F 29.46 in NNE 0.7 mph 12 mph 97% 0.02 in 0 W/m2
19:53 55 °F 54.2 °F 29.46 in NW 1.3 mph 16 mph 97% 0.02 in 0 W/m2
Hartford County Weather
Compliments of Weather Underground - 2 mb